Latest Weather Observations for Melbourne

IDV60901

Issued at 4:35 pm EST Thursday 17 April 2014 (issued every 10 minutes, with the page automatically refreshed every 10 minutes)

About weather observations | Map of Melbourne area stations | Latest observations for Melbourne area | Other Formats
Station Details ID: 086071 Name: MELBOURNE REGIONAL OFFICE Lat: -37.81 Lon: 144.97 Height: 31.15 m
Data from the previous 72 hours. | See also: Recent months at Melbourne

* Apparent temperature (App Temp) for Melbourne is calculated using temperature observations collected at Melbourne and wind observations collected at Essendon Airport, as wind observations are not currently provided for Melbourne.

Date/Time
EST
Tmp

°C
App
Tmp
°C
Dew
Point
°C
Rel
Hum
%
Delta-T

°C
Wind Press
QNH
hPa
Press
MSL
hPa
Rain
since
9 am
mm
Dir
 
Spd
km/h
Gust
km/h
Spd
kts
Gust
kts
17/04:30pm 22.9 19.5 7.8 38 7.9 - 15 - 8 - 1017.4 - 0.0
17/04:00pm 23.4 19.5 8.6 38 7.9 - 19 - 10 - 1017.6 - 0.0
17/03:30pm 24.1 22.3 8.1 36 8.5 - 7 - 4 - 1017.8 - 0.0
17/03:00pm 24.1 21.6 8.3 36 8.4 - 11 - 6 - 1018.0 1018.0 0.0
17/02:30pm 24.0 21.7 7.4 34 8.7 - 9 - 5 - 1018.2 - 0.0
17/02:00pm 24.3 21.8 8.1 35 8.6 - 11 - 6 - 1018.5 - 0.0
17/01:30pm 24.1 21.9 7.8 35 8.6 - 9 - 5 - 1018.8 - 0.0
17/01:00pm 22.9 20.7 7.8 38 7.9 - 9 - 5 - 1019.3 - 0.0
17/12:30pm 23.1 20.1 6.2 33 8.6 - 11 - 6 - 1019.6 - 0.0
17/12:00pm 22.6 20.6 8.6 40 7.4 - 9 - 5 - 1020.0 1020.0 0.0
17/11:30am 21.3 20.3 8.8 44 6.6 - 4 - 2 - 1020.4 - 0.0
17/11:00am 20.7 19.4 9.2 47 6.1 - 6 - 3 - 1020.6 - 0.0
17/10:30am 19.1 - 9.7 54 5.0 - - - - - 1020.6 - 0.0
17/10:00am 16.5 15.7 9.6 63 3.6 - 4 - 2 - 1020.7 - 0.0
17/09:30am 15.0 14.0 10.4 74 2.4 - 6 - 3 - 1020.9 - 0.0
17/09:00am 14.1 13.0 10.0 76 2.1 - 6 - 3 - 1021.1 1021.1 0.0
17/08:30am 12.7 12.6 9.5 81 1.6 CALM 0 - 0 - 1021.1 - 0.0
17/08:00am 12.3 11.1 9.5 83 1.4 - 6 - 3 - 1020.9 - 0.0
17/07:30am 11.4 10.5 9.4 87 1.0 - 4 - 2 - 1020.8 - 0.0
17/07:00am 11.5 11.4 9.5 87 1.0 CALM 0 - 0 - 1020.4 - 0.0
17/06:30am 11.4 11.3 9.4 87 1.0 CALM 0 - 0 - 1020.3 - 0.0
17/06:00am 11.5 11.5 9.9 90 0.8 CALM 0 - 0 - 1020.2 1020.2 0.0
17/05:30am 11.5 11.5 9.7 89 0.9 CALM 0 - 0 - 1020.0 - 0.0
17/05:00am 11.4 11.5 10.0 91 0.7 CALM 0 - 0 - 1019.8 - 0.0
17/04:30am 12.2 12.3 10.3 88 1.0 CALM 0 - 0 - 1019.7 - 0.0
17/04:00am 11.8 11.9 10.2 90 0.8 CALM 0 - 0 - 1019.6 - 0.0
17/03:30am 12.3 12.5 10.4 88 1.0 CALM 0 - 0 - 1019.5 - 0.0
17/03:00am 12.6 12.8 10.7 88 1.0 CALM 0 - 0 - 1019.5 1019.5 0.0
17/02:30am 12.5 12.8 10.8 89 0.9 CALM 0 - 0 - 1019.3 - 0.0
17/02:00am 12.8 12.8 11.1 89 0.9 - 2 - 1 - 1019.5 - 0.0
17/01:30am 13.9 11.9 11.5 85 1.3 - 13 - 7 - 1019.5 - 0.0
17/01:00am 14.5 12.5 11.5 82 1.6 - 13 - 7 - 1019.7 - 0.0
17/12:30am 13.9 11.9 11.5 85 1.3 - 13 - 7 - 1019.6 - 0.0
17/12:00am 14.2 13.4 11.6 84 1.4 - 7 - 4 - 1019.4 1019.4 0.0
 
Date/Time
EST
Tmp

°C
App
Tmp
°C
Dew
Point
°C
Rel
Hum
%
Delta-T

°C
Wind Press
QNH
hPa
Press
MSL
hPa
Rain
since
9 am
mm
Dir
 
Spd
km/h
Gust
km/h
Spd
kts
Gust
kts
16/11:30pm 14.5 13.3 11.5 82 1.6 - 9 - 5 - 1019.5 - 0.0
16/11:00pm 15.5 14.4 11.8 78 2.0 - 9 - 5 - 1019.4 - 0.0
16/10:30pm 15.8 14.7 11.9 77 2.1 - 9 - 5 - 1019.8 - 0.0
16/10:00pm 15.8 14.2 11.7 76 2.2 - 11 - 6 - 1019.8 - 0.0
16/09:30pm 16.7 15.5 11.7 72 2.7 - 9 - 5 - 1020.0 - 0.0
16/09:00pm 16.4 14.9 11.8 74 2.5 - 11 - 6 - 1019.9 1019.9 0.0
16/08:30pm 16.7 16.0 11.9 73 2.6 - 7 - 4 - 1019.7 - 0.0
16/08:00pm 17.2 17.8 11.9 71 2.9 CALM 0 - 0 - 1019.7 - 0.0
16/07:30pm 17.8 18.0 12.0 69 3.2 - 2 - 1 - 1019.6 - 0.0
16/07:00pm 18.0 17.0 12.4 70 3.1 - 9 - 5 - 1019.5 - 0.0
16/06:30pm 17.9 16.7 12.7 71 2.9 - 11 - 6 - 1019.2 - 0.0
16/06:00pm 18.2 16.8 12.2 68 3.3 - 11 - 6 - 1018.9 1018.9 0.0
16/05:30pm 18.9 17.5 12.2 65 3.7 - 11 - 6 - 1018.8 - 0.0
16/05:00pm 19.2 17.2 12.6 65 3.7 - 15 - 8 - 1018.4 - 0.0
16/04:30pm 19.1 16.0 12.1 64 3.9 - 20 - 11 - 1018.4 - 0.0
16/04:00pm 19.2 15.8 12.4 64 3.8 - 22 - 12 - 1018.1 - 0.0
16/03:30pm 20.5 18.4 12.5 60 4.5 - 15 - 8 - 1017.8 - 0.0
16/03:00pm 21.0 18.9 12.3 57 4.9 - 15 - 8 - 1018.0 1018.0 0.0
16/02:30pm 20.5 18.3 12.1 58 4.7 - 15 - 8 - 1018.0 - 0.0
16/02:00pm 21.3 18.6 11.8 54 5.3 - 17 - 9 - 1018.0 - 0.0
16/01:30pm 21.6 19.7 11.7 53 5.5 - 13 - 7 - 1018.2 - 0.0
16/01:00pm 21.4 19.7 11.3 52 5.6 - 11 - 6 - 1018.5 - 0.0
16/12:30pm 20.9 19.8 10.8 52 5.5 - 7 - 4 - 1019.1 - 0.0
16/12:00pm 19.1 17.7 11.0 59 4.4 - 9 - 5 - 1019.5 1019.5 0.0
16/11:30am 18.7 17.2 10.7 59 4.3 - 9 - 5 - 1020.0 - 0.0
16/11:00am 16.9 15.6 11.1 68 3.1 - 9 - 5 - 1020.3 - 0.0
16/10:30am 16.3 16.7 11.1 71 2.8 CALM 0 - 0 - 1020.6 - 0.0
16/10:00am 14.2 13.9 11.4 83 1.5 - 4 - 2 - 1021.0 - 0.0
16/09:30am 14.1 13.2 11.3 83 1.5 - 7 - 4 - 1021.2 - 0.0
16/09:00am 13.4 12.4 11.1 86 1.2 - 7 - 4 - 1021.2 1021.2 0.0
16/08:30am 12.6 11.1 10.7 88 1.0 - 9 - 5 - 1021.1 - 0.0
16/08:00am 11.6 9.9 9.8 89 0.9 - 9 - 5 - 1021.0 - 0.0
16/07:30am 10.6 8.4 9.2 91 0.7 - 11 - 6 - 1021.0 - 0.0
16/07:00am 10.3 8.0 9.1 92 0.6 - 11 - 6 - 1020.8 - 0.0
16/06:30am 10.3 8.0 8.9 91 0.7 - 11 - 6 - 1020.7 - 0.0
16/06:00am 10.2 8.3 9.0 92 0.6 - 9 - 5 - 1020.7 1020.7 0.0
16/05:30am 10.2 8.7 9.2 93 0.5 - 7 - 4 - 1020.7 - 0.0
16/05:00am 10.5 8.7 9.5 93 0.5 - 9 - 5 - 1020.6 - 0.0
16/04:30am 10.6 8.8 9.6 93 0.5 - 9 - 5 - 1020.3 - 0.0
16/04:00am 10.9 8.8 9.7 92 0.6 - 11 - 6 - 1020.3 - 0.0
16/03:30am 11.2 9.1 9.8 91 0.7 - 11 - 6 - 1020.1 - 0.0
16/03:00am 11.2 9.5 10.0 92 0.6 - 9 - 5 - 1020.2 1020.2 0.0
16/02:30am 11.4 10.3 10.0 91 0.7 - 6 - 3 - 1020.5 - 0.0
16/02:00am 12.0 10.5 10.4 90 0.8 - 9 - 5 - 1020.9 - 0.0
16/01:30am 12.1 10.2 10.5 90 0.8 - 11 - 6 - 1021.3 - 0.0
16/01:00am 12.4 10.9 10.7 89 0.9 - 9 - 5 - 1021.3 - 0.0
16/12:30am 13.2 11.7 10.7 85 1.3 - 9 - 5 - 1021.3 - 0.0
16/12:00am 13.5 12.0 10.6 82 1.5 - 9 - 5 - 1021.4 1021.4 0.0
 
Date/Time
EST
Tmp

°C
App
Tmp
°C
Dew
Point
°C
Rel
Hum
%
Delta-T

°C
Wind Press
QNH
hPa
Press
MSL
hPa
Rain
since
9 am
mm
Dir
 
Spd
km/h
Gust
km/h
Spd
kts
Gust
kts
15/11:30pm 13.5 12.0 10.6 82 1.5 - 9 - 5 - 1021.5 - 0.0
15/11:00pm 14.0 14.3 10.8 81 1.7 CALM 0 - 0 - 1021.8 - 0.0
15/10:30pm 14.7 13.6 10.7 77 2.1 - 7 - 4 - 1021.9 - 0.0
15/10:00pm 15.2 14.1 10.6 74 2.4 - 7 - 4 - 1022.3 - 0.0
15/09:30pm 15.6 14.5 10.5 71 2.7 - 7 - 4 - 1022.3 - 0.0
15/09:00pm 16.1 14.7 10.8 71 2.8 - 9 - 5 - 1022.1 1022.1 0.0
15/08:30pm 16.4 14.6 11.0 70 2.9 - 11 - 6 - 1022.0 - 0.0
15/08:00pm 17.0 13.9 11.5 70 3.0 - 19 - 10 - 1022.0 - 0.0
15/07:30pm 17.4 14.7 11.7 69 3.1 - 17 - 9 - 1022.2 - 0.0
15/07:00pm 17.4 14.3 12.1 71 2.9 - 20 - 11 - 1022.0 - 0.0
15/06:30pm 17.5 13.4 11.6 68 3.2 - 24 - 13 - 1021.8 - 0.0
15/06:00pm 18.1 14.5 11.9 67 3.4 - 22 - 12 - 1021.6 1021.6 0.0
15/05:30pm 18.6 14.3 12.1 66 3.6 - 26 - 14 - 1021.2 - 0.0
15/05:00pm 18.9 14.3 12.4 66 3.6 - 28 - 15 - 1021.1 - 0.0
15/04:30pm 19.6 15.2 11.8 60 4.3 - 26 - 14 - 1021.0 - 0.0
15/04:00pm 21.1 16.9 11.1 52 5.5 - 24 - 13 - 1021.1 - 0.0
15/03:30pm 20.3 16.1 11.2 56 5.0 - 24 - 13 - 1021.3 - 0.0
15/03:00pm 20.5 16.4 11.6 56 4.9 - 24 - 13 - 1021.4 1021.4 0.0
15/02:30pm 21.1 16.0 10.6 51 5.7 - 28 - 15 - 1021.5 - 0.0
15/02:00pm 19.9 15.6 9.3 50 5.6 - 22 - 12 - 1021.5 - 0.0
15/01:30pm 20.1 15.5 9.8 51 5.5 - 24 - 13 - 1021.5 - 0.0
15/01:00pm 20.1 16.1 10.5 54 5.2 - 22 - 12 - 1022.0 - 0.0
15/12:30pm 20.8 16.7 10.2 50 5.7 - 22 - 12 - 1022.3 - 0.0
15/12:00pm 19.6 15.1 7.1 44 6.3 - 20 - 11 - 1022.7 1022.7 0.0
15/11:30am 19.5 15.9 8.3 48 5.8 - 17 - 9 - 1023.1 - 0.0
15/11:00am 18.8 15.0 9.0 53 5.1 - 19 - 10 - 1023.5 - 0.0
15/10:30am 18.0 13.9 8.0 52 5.1 - 19 - 10 - 1023.6 - 0.0
15/10:00am 16.8 14.1 9.0 60 4.0 - 13 - 7 - 1023.8 - 0.0
15/09:30am 16.3 14.6 9.8 65 3.4 - 9 - 5 - 1023.9 - 0.0
15/09:00am 16.1 14.8 10.0 67 3.2 - 7 - 4 - 1024.0 1024.0 0.0
15/08:30am 14.9 13.6 9.2 68 2.9 - 6 - 3 - 1024.1 - 0.0
15/08:00am 14.0 12.9 8.4 69 2.8 - 4 - 2 - 1023.9 - 0.0
15/07:30am 13.0 11.5 8.4 73 2.3 - 6 - 3 - 1023.6 - 0.0
15/07:00am 13.0 10.9 8.1 72 2.4 - 9 - 5 - 1023.2 - 0.0
15/06:30am 13.4 11.3 8.4 72 2.5 - 9 - 5 - 1023.0 - 0.0
15/06:00am 13.2 12.9 8.6 73 2.3 CALM 0 - 0 - 1022.9 1022.9 0.0
15/05:30am 13.2 12.5 8.4 72 2.4 - 2 - 1 - 1022.8 - 0.0
15/05:00am 13.1 11.4 8.5 73 2.3 - 7 - 4 - 1022.7 - 0.0
15/04:30am 13.1 12.6 8.0 71 2.5 CALM 0 - 0 - 1022.7 - 0.0
15/04:00am 13.0 12.6 8.1 72 2.4 CALM 0 - 0 - 1022.7 - 0.0
15/03:30am 13.6 12.0 7.9 68 2.8 - 6 - 3 - 1022.7 - 0.0
15/03:00am 13.7 11.9 8.0 68 2.8 - 7 - 4 - 1022.7 1022.7 0.0
15/02:30am 14.0 12.1 7.7 66 3.1 - 7 - 4 - 1023.0 - 0.0
15/02:00am 13.8 11.9 7.7 66 3.0 - 7 - 4 - 1023.1 - 0.0
15/01:30am 13.6 11.8 7.9 68 2.8 - 7 - 4 - 1023.1 - 0.0
15/01:00am 14.1 11.5 7.8 66 3.1 - 11 - 6 - 1023.2 - 0.0
15/12:30am 14.2 11.8 8.6 69 2.8 - 11 - 6 - 1023.2 - 0.0
15/12:00am 14.2 11.5 9.1 71 2.6 - 13 - 7 - 1023.3 1023.3 0.0
 
Date/Time
EST
Tmp

°C
App
Tmp
°C
Dew
Point
°C
Rel
Hum
%
Delta-T

°C
Wind Press
QNH
hPa
Press
MSL
hPa
Rain
since
9 am
mm
Dir
 
Spd
km/h
Gust
km/h
Spd
kts
Gust
kts
14/11:30pm 14.4 11.5 9.5 72 2.5 - 15 - 8 - 1023.3 - 0.0
14/11:00pm 14.9 11.3 9.7 71 2.7 - 19 - 10 - 1023.5 - 0.0
14/10:30pm 14.8 11.7 10.2 74 2.4 - 17 - 9 - 1023.7 - 0.0
14/10:00pm 15.0 11.4 10.4 74 2.4 - 20 - 11 - 1023.6 - 0.0
14/09:30pm 15.5 12.8 10.4 71 2.7 - 15 - 8 - 1023.5 - 0.0
14/09:00pm 15.8 12.3 10.1 69 3.0 - 19 - 10 - 1023.5 1023.5 0.0
14/08:30pm 16.2 12.9 9.4 64 3.5 - 17 - 9 - 1023.4 - 0.0
14/08:00pm 16.6 12.8 9.0 61 3.9 - 19 - 10 - 1023.2 - 0.0
14/07:30pm 16.9 12.4 8.5 57 4.3 - 22 - 12 - 1023.0 - 0.0
14/07:00pm 17.4 12.7 7.9 53 4.8 - 22 - 12 - 1022.9 - 0.0
14/06:30pm 17.8 13.5 8.0 52 5.0 - 20 - 11 - 1022.5 - 0.0
14/06:00pm 18.3 13.7 8.1 51 5.2 - 22 - 12 - 1022.1 1022.1 0.0
14/05:30pm 18.7 13.8 8.4 51 5.3 - 24 - 13 - 1021.9 - 0.0
14/05:00pm 19.0 13.6 7.8 48 5.7 - 26 - 14 - 1021.6 - 0.0

Latest Capital City Observations: Canberra | Sydney | Melbourne | Brisbane | Adelaide | Perth | Hobart | Darwin

Other Formats:

Comma delimited format used in spreadsheet applications
http://www.bom.gov.au/fwo/IDV60901/IDV60901.94868.axf

JavaScript Object Notation format (JSON) in row-major order
http://www.bom.gov.au/fwo/IDV60901/IDV60901.94868.json